Terminal Aerodrome Forecast
Issued by NWS

Home | Current Version | Previous Version | Text Only | Print | Product List | Glossary On
Versions: 1 2 3 4 5 6 7 8 9 10 11 12 13 14 15 16 17 18 19 20 21 22
482
FTUS44 KMAF 081120
TAFINK
TAF
KINK 081120Z 0812/0912 03013KT 5SM -SN FEW020 OVC030
      TEMPO 0812/0814 2SM -SN BR
     FM081400 04013G23KT 5SM -SN OVC019
     FM081600 06009G19KT P6SM OVC010
     FM082000 08007G17KT P6SM OVC026
     FM090100 11006KT P6SM OVC035=

USA.gov is the U.S. government's official web portal to all federal, state and local government web resources and services.